sensor_id;sensor_type;location;lat;lon;timestamp;P1;durP1;ratioP1;P2;durP2;ratioP2
73585;SDS011;61865;50.232;18.614;2023-03-23T00:01:48;45.85;;;22.90;;
73585;SDS011;61865;50.232;18.614;2023-03-23T00:04:12;41.30;;;22.73;;
73585;SDS011;61865;50.232;18.614;2023-03-23T00:06:33;35.83;;;20.75;;
73585;SDS011;61865;50.232;18.614;2023-03-23T00:08:57;32.60;;;19.33;;
73585;SDS011;61865;50.232;18.614;2023-03-23T00:11:20;31.15;;;18.70;;
73585;SDS011;61865;50.232;18.614;2023-03-23T00:13:44;29.63;;;18.27;;
73585;SDS011;61865;50.232;18.614;2023-03-23T00:16:07;28.92;;;17.42;;
73585;SDS011;61865;50.232;18.614;2023-03-23T00:18:36;29.75;;;18.58;;
73585;SDS011;61865;50.232;18.614;2023-03-23T00:21:00;34.53;;;19.20;;
73585;SDS011;61865;50.232;18.614;2023-03-23T00:23:24;32.90;;;19.52;;
73585;SDS011;61865;50.232;18.614;2023-03-23T00:25:47;32.80;;;18.33;;
73585;SDS011;61865;50.232;18.614;2023-03-23T00:28:10;30.30;;;17.13;;
73585;SDS011;61865;50.232;18.614;2023-03-23T00:30:34;38.08;;;18.58;;
73585;SDS011;61865;50.232;18.614;2023-03-23T00:32:55;33.72;;;17.95;;
73585;SDS011;61865;50.232;18.614;2023-03-23T00:35:17;30.23;;;18.27;;
73585;SDS011;61865;50.232;18.614;2023-03-23T00:37:41;37.38;;;19.33;;
73585;SDS011;61865;50.232;18.614;2023-03-23T00:40:04;34.45;;;20.33;;
73585;SDS011;61865;50.232;18.614;2023-03-23T00:42:30;27.85;;;18.20;;
73585;SDS011;61865;50.232;18.614;2023-03-23T00:44:56;37.90;;;19.60;;
73585;SDS011;61865;50.232;18.614;2023-03-23T00:47:20;38.72;;;21.13;;
73585;SDS011;61865;50.232;18.614;2023-03-23T00:49:42;34.38;;;18.75;;
73585;SDS011;61865;50.232;18.614;2023-03-23T00:52:05;33.35;;;18.08;;
73585;SDS011;61865;50.232;18.614;2023-03-23T00:54:29;37.03;;;19.58;;
73585;SDS011;61865;50.232;18.614;2023-03-23T00:56:51;32.13;;;19.60;;
73585;SDS011;61865;50.232;18.614;2023-03-23T00:59:13;32.42;;;18.85;;
73585;SDS011;61865;50.232;18.614;2023-03-23T01:01:35;30.27;;;18.23;;
73585;SDS011;61865;50.232;18.614;2023-03-23T01:03:58;31.08;;;18.52;;
73585;SDS011;61865;50.232;18.614;2023-03-23T01:06:24;28.30;;;17.17;;
73585;SDS011;61865;50.232;18.614;2023-03-23T01:08:46;30.02;;;19.27;;
73585;SDS011;61865;50.232;18.614;2023-03-23T01:11:10;32.80;;;19.17;;
73585;SDS011;61865;50.232;18.614;2023-03-23T01:13:34;34.95;;;20.10;;
73585;SDS011;61865;50.232;18.614;2023-03-23T01:15:56;30.70;;;19.23;;
73585;SDS011;61865;50.232;18.614;2023-03-23T01:18:18;30.70;;;19.35;;
73585;SDS011;61865;50.232;18.614;2023-03-23T01:20:40;34.60;;;18.20;;
73585;SDS011;61865;50.232;18.614;2023-03-23T01:23:02;29.48;;;17.95;;
73585;SDS011;61865;50.232;18.614;2023-03-23T01:25:25;30.45;;;18.83;;
73585;SDS011;61865;50.232;18.614;2023-03-23T01:27:48;29.85;;;17.80;;
73585;SDS011;61865;50.232;18.614;2023-03-23T01:30:11;31.23;;;18.00;;
73585;SDS011;61865;50.232;18.614;2023-03-23T01:32:33;31.73;;;19.10;;
73585;SDS011;61865;50.232;18.614;2023-03-23T01:34:55;29.13;;;18.98;;
73585;SDS011;61865;50.232;18.614;2023-03-23T01:37:17;32.47;;;18.02;;
73585;SDS011;61865;50.232;18.614;2023-03-23T01:39:39;28.73;;;18.55;;
73585;SDS011;61865;50.232;18.614;2023-03-23T01:42:01;32.33;;;18.27;;
73585;SDS011;61865;50.232;18.614;2023-03-23T01:47:20;33.50;;;17.52;;
73585;SDS011;61865;50.232;18.614;2023-03-23T01:49:46;27.92;;;17.15;;
73585;SDS011;61865;50.232;18.614;2023-03-23T01:52:11;27.48;;;17.33;;
73585;SDS011;61865;50.232;18.614;2023-03-23T01:54:37;31.70;;;16.48;;
73585;SDS011;61865;50.232;18.614;2023-03-23T01:57:01;29.55;;;18.13;;
73585;SDS011;61865;50.232;18.614;2023-03-23T01:59:26;29.83;;;16.65;;
73585;SDS011;61865;50.232;18.614;2023-03-23T02:01:50;21.90;;;15.10;;
73585;SDS011;61865;50.232;18.614;2023-03-23T02:04:15;21.75;;;14.38;;
73585;SDS011;61865;50.232;18.614;2023-03-23T02:06:41;25.00;;;15.68;;
73585;SDS011;61865;50.232;18.614;2023-03-23T02:09:04;23.58;;;14.32;;
73585;SDS011;61865;50.232;18.614;2023-03-23T02:11:27;18.13;;;12.80;;
73585;SDS011;61865;50.232;18.614;2023-03-23T02:13:49;20.23;;;12.73;;
73585;SDS011;61865;50.232;18.614;2023-03-23T02:16:13;18.88;;;12.43;;
73585;SDS011;61865;50.232;18.614;2023-03-23T02:18:48;17.33;;;12.68;;
73585;SDS011;61865;50.232;18.614;2023-03-23T02:24:12;16.63;;;10.32;;
73585;SDS011;61865;50.232;18.614;2023-03-23T02:27:02;21.77;;;12.60;;
73585;SDS011;61865;50.232;18.614;2023-03-23T02:29:46;22.50;;;11.85;;
73585;SDS011;61865;50.232;18.614;2023-03-23T02:32:38;19.13;;;11.13;;
73585;SDS011;61865;50.232;18.614;2023-03-23T02:35:28;16.55;;;9.48;;
73585;SDS011;61865;50.232;18.614;2023-03-23T02:37:57;14.70;;;8.88;;
73585;SDS011;61865;50.232;18.614;2023-03-23T02:40:23;14.93;;;8.30;;
73585;SDS011;61865;50.232;18.614;2023-03-23T02:42:50;16.02;;;8.93;;
73585;SDS011;61865;50.232;18.614;2023-03-23T02:45:15;11.02;;;8.05;;
73585;SDS011;61865;50.232;18.614;2023-03-23T02:47:38;15.23;;;7.63;;
73585;SDS011;61865;50.232;18.614;2023-03-23T02:50:03;13.05;;;7.60;;
73585;SDS011;61865;50.232;18.614;2023-03-23T02:52:30;11.10;;;7.50;;
73585;SDS011;61865;50.232;18.614;2023-03-23T02:54:54;10.77;;;7.10;;
73585;SDS011;61865;50.232;18.614;2023-03-23T02:57:18;13.80;;;8.10;;
73585;SDS011;61865;50.232;18.614;2023-03-23T02:59:41;11.68;;;7.05;;
73585;SDS011;61865;50.232;18.614;2023-03-23T03:02:04;16.08;;;7.50;;
73585;SDS011;61865;50.232;18.614;2023-03-23T03:04:28;12.35;;;6.75;;
73585;SDS011;61865;50.232;18.614;2023-03-23T03:09:48;11.65;;;7.20;;
73585;SDS011;61865;50.232;18.614;2023-03-23T03:12:13;11.85;;;6.75;;
73585;SDS011;61865;50.232;18.614;2023-03-23T03:14:41;9.25;;;6.90;;
73585;SDS011;61865;50.232;18.614;2023-03-23T03:17:10;12.65;;;6.85;;
73585;SDS011;61865;50.232;18.614;2023-03-23T03:19:41;11.50;;;7.37;;
73585;SDS011;61865;50.232;18.614;2023-03-23T03:22:06;10.38;;;6.65;;
73585;SDS011;61865;50.232;18.614;2023-03-23T03:24:30;11.77;;;6.63;;
73585;SDS011;61865;50.232;18.614;2023-03-23T03:26:55;11.45;;;7.05;;
73585;SDS011;61865;50.232;18.614;2023-03-23T03:29:20;10.90;;;7.15;;
73585;SDS011;61865;50.232;18.614;2023-03-23T03:31:44;12.40;;;7.63;;
73585;SDS011;61865;50.232;18.614;2023-03-23T03:34:08;12.35;;;7.75;;
73585;SDS011;61865;50.232;18.614;2023-03-23T03:36:31;11.88;;;7.10;;
73585;SDS011;61865;50.232;18.614;2023-03-23T03:38:55;13.52;;;7.53;;
73585;SDS011;61865;50.232;18.614;2023-03-23T03:41:20;13.73;;;7.88;;
73585;SDS011;61865;50.232;18.614;2023-03-23T03:43:43;13.02;;;7.95;;
73585;SDS011;61865;50.232;18.614;2023-03-23T03:46:05;10.82;;;7.95;;
73585;SDS011;61865;50.232;18.614;2023-03-23T03:48:27;13.13;;;7.80;;
73585;SDS011;61865;50.232;18.614;2023-03-23T03:50:49;17.63;;;8.68;;
73585;SDS011;61865;50.232;18.614;2023-03-23T03:53:12;17.02;;;7.97;;
73585;SDS011;61865;50.232;18.614;2023-03-23T03:55:34;13.30;;;8.02;;
73585;SDS011;61865;50.232;18.614;2023-03-23T03:57:58;12.75;;;7.95;;
73585;SDS011;61865;50.232;18.614;2023-03-23T04:00:21;12.95;;;8.88;;
73585;SDS011;61865;50.232;18.614;2023-03-23T04:02:44;19.05;;;9.52;;
73585;SDS011;61865;50.232;18.614;2023-03-23T04:05:10;15.82;;;8.57;;
73585;SDS011;61865;50.232;18.614;2023-03-23T04:07:35;14.05;;;8.57;;
73585;SDS011;61865;50.232;18.614;2023-03-23T04:09:59;16.85;;;9.05;;
73585;SDS011;61865;50.232;18.614;2023-03-23T04:12:21;17.20;;;9.13;;
73585;SDS011;61865;50.232;18.614;2023-03-23T04:14:43;14.00;;;9.40;;
73585;SDS011;61865;50.232;18.614;2023-03-23T04:17:06;16.38;;;8.95;;
73585;SDS011;61865;50.232;18.614;2023-03-23T04:19:30;13.35;;;8.80;;
73585;SDS011;61865;50.232;18.614;2023-03-23T04:21:53;14.13;;;9.48;;
73585;SDS011;61865;50.232;18.614;2023-03-23T04:24:15;13.50;;;9.05;;
73585;SDS011;61865;50.232;18.614;2023-03-23T04:26:41;15.50;;;9.23;;
73585;SDS011;61865;50.232;18.614;2023-03-23T04:29:04;16.92;;;10.70;;
73585;SDS011;61865;50.232;18.614;2023-03-23T04:31:26;17.00;;;10.05;;
73585;SDS011;61865;50.232;18.614;2023-03-23T04:33:49;18.38;;;9.90;;
73585;SDS011;61865;50.232;18.614;2023-03-23T04:36:13;17.40;;;10.27;;
73585;SDS011;61865;50.232;18.614;2023-03-23T04:38:36;16.38;;;9.60;;
73585;SDS011;61865;50.232;18.614;2023-03-23T04:40:58;17.98;;;10.75;;
73585;SDS011;61865;50.232;18.614;2023-03-23T04:43:22;18.67;;;9.85;;
73585;SDS011;61865;50.232;18.614;2023-03-23T04:45:44;16.02;;;9.82;;
73585;SDS011;61865;50.232;18.614;2023-03-23T04:48:06;16.50;;;10.57;;
73585;SDS011;61865;50.232;18.614;2023-03-23T04:50:31;20.25;;;11.75;;
73585;SDS011;61865;50.232;18.614;2023-03-23T04:52:53;21.63;;;12.57;;
73585;SDS011;61865;50.232;18.614;2023-03-23T04:55:17;19.38;;;10.35;;
73585;SDS011;61865;50.232;18.614;2023-03-23T04:57:39;17.38;;;10.82;;
73585;SDS011;61865;50.232;18.614;2023-03-23T05:00:02;18.77;;;10.52;;
73585;SDS011;61865;50.232;18.614;2023-03-23T05:02:28;15.23;;;9.90;;
73585;SDS011;61865;50.232;18.614;2023-03-23T05:04:53;16.80;;;9.88;;
73585;SDS011;61865;50.232;18.614;2023-03-23T05:07:17;16.23;;;9.63;;
73585;SDS011;61865;50.232;18.614;2023-03-23T05:09:38;12.68;;;9.13;;
73585;SDS011;61865;50.232;18.614;2023-03-23T05:12:04;19.58;;;10.23;;
73585;SDS011;61865;50.232;18.614;2023-03-23T05:14:27;13.57;;;10.30;;
73585;SDS011;61865;50.232;18.614;2023-03-23T05:16:49;19.85;;;10.80;;
73585;SDS011;61865;50.232;18.614;2023-03-23T05:19:12;14.80;;;9.70;;
73585;SDS011;61865;50.232;18.614;2023-03-23T05:21:34;19.42;;;10.15;;
73585;SDS011;61865;50.232;18.614;2023-03-23T05:23:58;18.05;;;9.93;;
73585;SDS011;61865;50.232;18.614;2023-03-23T05:26:20;15.95;;;10.05;;
73585;SDS011;61865;50.232;18.614;2023-03-23T05:28:43;16.02;;;9.63;;
73585;SDS011;61865;50.232;18.614;2023-03-23T05:31:05;15.98;;;10.05;;
73585;SDS011;61865;50.232;18.614;2023-03-23T05:33:27;14.52;;;8.95;;
73585;SDS011;61865;50.232;18.614;2023-03-23T05:35:49;16.65;;;9.38;;
73585;SDS011;61865;50.232;18.614;2023-03-23T05:38:11;15.45;;;8.65;;
73585;SDS011;61865;50.232;18.614;2023-03-23T05:40:35;14.95;;;9.20;;
73585;SDS011;61865;50.232;18.614;2023-03-23T05:42:57;19.98;;;9.48;;
73585;SDS011;61865;50.232;18.614;2023-03-23T05:45:22;18.00;;;9.93;;
73585;SDS011;61865;50.232;18.614;2023-03-23T05:47:45;16.23;;;8.95;;
73585;SDS011;61865;50.232;18.614;2023-03-23T05:50:11;14.60;;;8.90;;
73585;SDS011;61865;50.232;18.614;2023-03-23T05:52:34;12.70;;;8.35;;
73585;SDS011;61865;50.232;18.614;2023-03-23T05:54:56;13.27;;;8.32;;
73585;SDS011;61865;50.232;18.614;2023-03-23T05:57:20;13.63;;;8.27;;
73585;SDS011;61865;50.232;18.614;2023-03-23T05:59:43;12.45;;;8.30;;
73585;SDS011;61865;50.232;18.614;2023-03-23T06:02:05;13.27;;;7.88;;
73585;SDS011;61865;50.232;18.614;2023-03-23T06:04:27;12.07;;;8.48;;
73585;SDS011;61865;50.232;18.614;2023-03-23T06:06:48;14.40;;;8.85;;
73585;SDS011;61865;50.232;18.614;2023-03-23T06:09:11;17.30;;;9.10;;
73585;SDS011;61865;50.232;18.614;2023-03-23T06:11:33;12.77;;;7.78;;
73585;SDS011;61865;50.232;18.614;2023-03-23T06:13:57;12.63;;;7.60;;
73585;SDS011;61865;50.232;18.614;2023-03-23T06:16:18;11.63;;;7.85;;
73585;SDS011;61865;50.232;18.614;2023-03-23T06:18:40;13.25;;;8.63;;
73585;SDS011;61865;50.232;18.614;2023-03-23T06:21:03;12.48;;;7.68;;
73585;SDS011;61865;50.232;18.614;2023-03-23T06:23:26;10.70;;;7.55;;
73585;SDS011;61865;50.232;18.614;2023-03-23T06:25:49;13.27;;;7.38;;
73585;SDS011;61865;50.232;18.614;2023-03-23T06:28:11;11.75;;;7.57;;
73585;SDS011;61865;50.232;18.614;2023-03-23T06:30:35;18.33;;;8.27;;
73585;SDS011;61865;50.232;18.614;2023-03-23T06:32:57;13.73;;;8.00;;
73585;SDS011;61865;50.232;18.614;2023-03-23T06:35:19;19.13;;;8.18;;
73585;SDS011;61865;50.232;18.614;2023-03-23T06:37:41;13.98;;;8.68;;
73585;SDS011;61865;50.232;18.614;2023-03-23T06:40:04;14.38;;;8.05;;
73585;SDS011;61865;50.232;18.614;2023-03-23T06:42:27;16.50;;;8.32;;
73585;SDS011;61865;50.232;18.614;2023-03-23T06:44:52;15.88;;;8.50;;
73585;SDS011;61865;50.232;18.614;2023-03-23T06:47:18;20.92;;;7.57;;
73585;SDS011;61865;50.232;18.614;2023-03-23T06:49:40;15.70;;;8.25;;
73585;SDS011;61865;50.232;18.614;2023-03-23T06:52:02;16.45;;;8.50;;
73585;SDS011;61865;50.232;18.614;2023-03-23T06:54:25;15.07;;;8.88;;
73585;SDS011;61865;50.232;18.614;2023-03-23T06:56:48;16.98;;;8.45;;
73585;SDS011;61865;50.232;18.614;2023-03-23T06:59:11;18.00;;;9.05;;
73585;SDS011;61865;50.232;18.614;2023-03-23T07:01:37;17.80;;;9.13;;
73585;SDS011;61865;50.232;18.614;2023-03-23T07:04:00;17.63;;;8.23;;
73585;SDS011;61865;50.232;18.614;2023-03-23T07:06:23;21.17;;;9.75;;
73585;SDS011;61865;50.232;18.614;2023-03-23T07:08:49;16.83;;;9.27;;
73585;SDS011;61865;50.232;18.614;2023-03-23T07:11:11;13.27;;;8.35;;
73585;SDS011;61865;50.232;18.614;2023-03-23T07:13:34;17.10;;;7.60;;
73585;SDS011;61865;50.232;18.614;2023-03-23T07:15:57;18.60;;;7.65;;
73585;SDS011;61865;50.232;18.614;2023-03-23T07:18:23;13.57;;;8.07;;
73585;SDS011;61865;50.232;18.614;2023-03-23T07:20:48;14.10;;;8.02;;
73585;SDS011;61865;50.232;18.614;2023-03-23T07:23:10;14.52;;;7.70;;
73585;SDS011;61865;50.232;18.614;2023-03-23T07:25:32;13.82;;;7.50;;
73585;SDS011;61865;50.232;18.614;2023-03-23T07:27:54;15.27;;;7.57;;
73585;SDS011;61865;50.232;18.614;2023-03-23T07:30:17;14.95;;;6.97;;
73585;SDS011;61865;50.232;18.614;2023-03-23T07:32:42;17.10;;;7.57;;
73585;SDS011;61865;50.232;18.614;2023-03-23T07:35:06;17.08;;;7.72;;
73585;SDS011;61865;50.232;18.614;2023-03-23T07:37:33;11.80;;;7.43;;
73585;SDS011;61865;50.232;18.614;2023-03-23T07:39:55;17.20;;;7.05;;
73585;SDS011;61865;50.232;18.614;2023-03-23T07:42:17;12.60;;;7.20;;
73585;SDS011;61865;50.232;18.614;2023-03-23T07:44:39;17.25;;;7.78;;
73585;SDS011;61865;50.232;18.614;2023-03-23T07:47:03;12.35;;;7.40;;
73585;SDS011;61865;50.232;18.614;2023-03-23T07:49:25;13.70;;;7.18;;
73585;SDS011;61865;50.232;18.614;2023-03-23T07:51:53;12.25;;;6.68;;
73585;SDS011;61865;50.232;18.614;2023-03-23T07:54:17;15.05;;;6.53;;
73585;SDS011;61865;50.232;18.614;2023-03-23T07:56:39;13.30;;;6.75;;
73585;SDS011;61865;50.232;18.614;2023-03-23T07:59:04;12.93;;;6.80;;
73585;SDS011;61865;50.232;18.614;2023-03-23T08:01:28;15.10;;;7.13;;
73585;SDS011;61865;50.232;18.614;2023-03-23T08:03:50;13.70;;;6.63;;
73585;SDS011;61865;50.232;18.614;2023-03-23T08:06:15;12.50;;;6.38;;
73585;SDS011;61865;50.232;18.614;2023-03-23T08:08:37;17.83;;;7.25;;
73585;SDS011;61865;50.232;18.614;2023-03-23T08:11:01;11.10;;;7.28;;
73585;SDS011;61865;50.232;18.614;2023-03-23T08:13:24;17.08;;;6.47;;
73585;SDS011;61865;50.232;18.614;2023-03-23T08:15:46;12.15;;;6.05;;
73585;SDS011;61865;50.232;18.614;2023-03-23T08:18:08;10.90;;;6.47;;
73585;SDS011;61865;50.232;18.614;2023-03-23T08:20:30;11.80;;;6.13;;
73585;SDS011;61865;50.232;18.614;2023-03-23T08:22:53;10.93;;;6.38;;
73585;SDS011;61865;50.232;18.614;2023-03-23T08:25:16;11.18;;;5.75;;
73585;SDS011;61865;50.232;18.614;2023-03-23T08:27:40;10.90;;;5.95;;
73585;SDS011;61865;50.232;18.614;2023-03-23T08:30:04;13.93;;;5.47;;
73585;SDS011;61865;50.232;18.614;2023-03-23T08:32:27;10.25;;;5.25;;
73585;SDS011;61865;50.232;18.614;2023-03-23T08:34:49;9.40;;;5.00;;
73585;SDS011;61865;50.232;18.614;2023-03-23T08:37:11;9.40;;;4.50;;
73585;SDS011;61865;50.232;18.614;2023-03-23T08:39:33;8.70;;;4.78;;
73585;SDS011;61865;50.232;18.614;2023-03-23T08:41:55;13.95;;;4.70;;
73585;SDS011;61865;50.232;18.614;2023-03-23T08:44:18;11.45;;;4.70;;
73585;SDS011;61865;50.232;18.614;2023-03-23T08:46:40;10.73;;;4.40;;
73585;SDS011;61865;50.232;18.614;2023-03-23T08:49:02;10.48;;;5.32;;
73585;SDS011;61865;50.232;18.614;2023-03-23T08:51:25;11.10;;;5.53;;
73585;SDS011;61865;50.232;18.614;2023-03-23T08:53:47;9.98;;;5.10;;
73585;SDS011;61865;50.232;18.614;2023-03-23T08:56:11;10.52;;;4.65;;
73585;SDS011;61865;50.232;18.614;2023-03-23T08:58:33;12.93;;;5.00;;
73585;SDS011;61865;50.232;18.614;2023-03-23T09:00:57;8.60;;;4.70;;
73585;SDS011;61865;50.232;18.614;2023-03-23T09:03:19;10.68;;;5.05;;
73585;SDS011;61865;50.232;18.614;2023-03-23T09:05:41;13.93;;;5.32;;
73585;SDS011;61865;50.232;18.614;2023-03-23T09:08:07;8.65;;;4.60;;
73585;SDS011;61865;50.232;18.614;2023-03-23T09:10:29;9.98;;;4.65;;
73585;SDS011;61865;50.232;18.614;2023-03-23T09:12:51;11.55;;;4.85;;
73585;SDS011;61865;50.232;18.614;2023-03-23T09:15:15;10.23;;;5.00;;
73585;SDS011;61865;50.232;18.614;2023-03-23T09:17:40;9.07;;;4.50;;
73585;SDS011;61865;50.232;18.614;2023-03-23T09:20:05;14.63;;;4.43;;
73585;SDS011;61865;50.232;18.614;2023-03-23T09:22:31;12.88;;;4.40;;
73585;SDS011;61865;50.232;18.614;2023-03-23T09:24:53;10.90;;;4.55;;
73585;SDS011;61865;50.232;18.614;2023-03-23T09:27:15;8.25;;;4.43;;
73585;SDS011;61865;50.232;18.614;2023-03-23T09:29:36;8.88;;;4.35;;
73585;SDS011;61865;50.232;18.614;2023-03-23T09:32:01;15.88;;;4.90;;
73585;SDS011;61865;50.232;18.614;2023-03-23T09:34:25;9.73;;;4.78;;
73585;SDS011;61865;50.232;18.614;2023-03-23T09:36:49;8.05;;;4.50;;
73585;SDS011;61865;50.232;18.614;2023-03-23T09:39:12;8.32;;;4.65;;
73585;SDS011;61865;50.232;18.614;2023-03-23T09:44:27;9.30;;;4.57;;
73585;SDS011;61865;50.232;18.614;2023-03-23T09:46:58;10.00;;;5.07;;
73585;SDS011;61865;50.232;18.614;2023-03-23T09:49:26;9.73;;;4.78;;
73585;SDS011;61865;50.232;18.614;2023-03-23T09:51:54;12.38;;;4.75;;
73585;SDS011;61865;50.232;18.614;2023-03-23T09:54:19;9.93;;;4.32;;
73585;SDS011;61865;50.232;18.614;2023-03-23T09:56:43;9.35;;;4.38;;
73585;SDS011;61865;50.232;18.614;2023-03-23T09:59:10;11.07;;;4.90;;
73585;SDS011;61865;50.232;18.614;2023-03-23T10:01:39;10.68;;;4.85;;
73585;SDS011;61865;50.232;18.614;2023-03-23T10:04:07;9.75;;;4.45;;
73585;SDS011;61865;50.232;18.614;2023-03-23T10:06:36;9.43;;;4.47;;
73585;SDS011;61865;50.232;18.614;2023-03-23T10:08:59;10.25;;;5.18;;
73585;SDS011;61865;50.232;18.614;2023-03-23T10:11:28;10.88;;;4.32;;
73585;SDS011;61865;50.232;18.614;2023-03-23T10:14:02;9.65;;;4.53;;
73585;SDS011;61865;50.232;18.614;2023-03-23T10:16:42;10.38;;;5.00;;
73585;SDS011;61865;50.232;18.614;2023-03-23T10:19:15;11.05;;;4.57;;
73585;SDS011;61865;50.232;18.614;2023-03-23T10:21:45;12.27;;;4.68;;
73585;SDS011;61865;50.232;18.614;2023-03-23T10:24:13;12.50;;;4.82;;
73585;SDS011;61865;50.232;18.614;2023-03-23T10:26:41;10.30;;;4.07;;
73585;SDS011;61865;50.232;18.614;2023-03-23T10:29:14;12.70;;;4.53;;
73585;SDS011;61865;50.232;18.614;2023-03-23T10:31:41;11.68;;;4.38;;
73585;SDS011;61865;50.232;18.614;2023-03-23T10:34:08;9.27;;;4.07;;
73585;SDS011;61865;50.232;18.614;2023-03-23T10:36:36;13.07;;;4.70;;
73585;SDS011;61865;50.232;18.614;2023-03-23T10:39:05;11.35;;;4.38;;
73585;SDS011;61865;50.232;18.614;2023-03-23T10:41:34;7.53;;;4.30;;
73585;SDS011;61865;50.232;18.614;2023-03-23T10:43:56;7.28;;;3.90;;
73585;SDS011;61865;50.232;18.614;2023-03-23T10:46:22;10.02;;;4.63;;
73585;SDS011;61865;50.232;18.614;2023-03-23T10:48:53;8.88;;;4.60;;
73585;SDS011;61865;50.232;18.614;2023-03-23T10:51:19;8.55;;;4.55;;
73585;SDS011;61865;50.232;18.614;2023-03-23T10:53:45;9.85;;;4.10;;
73585;SDS011;61865;50.232;18.614;2023-03-23T10:56:21;8.40;;;4.35;;
73585;SDS011;61865;50.232;18.614;2023-03-23T10:58:44;8.25;;;4.13;;
73585;SDS011;61865;50.232;18.614;2023-03-23T11:01:10;11.93;;;4.63;;
73585;SDS011;61865;50.232;18.614;2023-03-23T11:03:38;7.13;;;4.35;;
73585;SDS011;61865;50.232;18.614;2023-03-23T11:06:03;7.82;;;4.30;;
73585;SDS011;61865;50.232;18.614;2023-03-23T11:08:27;10.07;;;4.40;;
73585;SDS011;61865;50.232;18.614;2023-03-23T11:10:51;8.95;;;4.38;;
73585;SDS011;61865;50.232;18.614;2023-03-23T11:13:16;7.40;;;4.15;;
73585;SDS011;61865;50.232;18.614;2023-03-23T11:15:40;9.40;;;4.30;;
73585;SDS011;61865;50.232;18.614;2023-03-23T11:18:03;8.88;;;4.60;;
73585;SDS011;61865;50.232;18.614;2023-03-23T11:20:28;9.48;;;4.55;;
73585;SDS011;61865;50.232;18.614;2023-03-23T11:22:56;7.97;;;4.07;;
73585;SDS011;61865;50.232;18.614;2023-03-23T11:25:18;8.20;;;4.40;;
73585;SDS011;61865;50.232;18.614;2023-03-23T11:27:41;10.15;;;4.13;;
73585;SDS011;61865;50.232;18.614;2023-03-23T11:30:09;8.30;;;4.32;;
73585;SDS011;61865;50.232;18.614;2023-03-23T11:32:34;10.10;;;4.43;;
73585;SDS011;61865;50.232;18.614;2023-03-23T11:34:58;8.35;;;4.30;;
73585;SDS011;61865;50.232;18.614;2023-03-23T11:37:23;7.50;;;4.00;;
73585;SDS011;61865;50.232;18.614;2023-03-23T11:39:53;8.00;;;4.30;;
73585;SDS011;61865;50.232;18.614;2023-03-23T11:42:19;9.85;;;4.32;;
73585;SDS011;61865;50.232;18.614;2023-03-23T11:44:43;8.45;;;4.07;;
73585;SDS011;61865;50.232;18.614;2023-03-23T11:47:08;7.43;;;4.30;;
73585;SDS011;61865;50.232;18.614;2023-03-23T11:49:49;9.48;;;4.40;;
73585;SDS011;61865;50.232;18.614;2023-03-23T11:52:16;9.35;;;4.65;;
73585;SDS011;61865;50.232;18.614;2023-03-23T11:54:46;9.10;;;4.82;;
73585;SDS011;61865;50.232;18.614;2023-03-23T11:57:13;8.57;;;4.57;;
73585;SDS011;61865;50.232;18.614;2023-03-23T11:59:36;14.40;;;5.00;;
73585;SDS011;61865;50.232;18.614;2023-03-23T12:02:03;11.65;;;4.97;;
73585;SDS011;61865;50.232;18.614;2023-03-23T12:04:50;8.70;;;4.90;;
73585;SDS011;61865;50.232;18.614;2023-03-23T12:07:23;12.30;;;4.80;;
73585;SDS011;61865;50.232;18.614;2023-03-23T12:10:00;10.93;;;4.40;;
73585;SDS011;61865;50.232;18.614;2023-03-23T12:12:34;8.98;;;4.55;;
73585;SDS011;61865;50.232;18.614;2023-03-23T12:15:04;10.32;;;4.78;;
73585;SDS011;61865;50.232;18.614;2023-03-23T12:17:35;11.07;;;4.30;;
73585;SDS011;61865;50.232;18.614;2023-03-23T12:20:11;8.85;;;4.18;;
73585;SDS011;61865;50.232;18.614;2023-03-23T12:22:51;8.95;;;4.57;;
73585;SDS011;61865;50.232;18.614;2023-03-23T12:25:39;8.20;;;4.30;;
73585;SDS011;61865;50.232;18.614;2023-03-23T12:28:11;9.05;;;4.50;;
73585;SDS011;61865;50.232;18.614;2023-03-23T12:30:41;8.45;;;3.55;;
73585;SDS011;61865;50.232;18.614;2023-03-23T12:33:16;9.23;;;4.47;;
73585;SDS011;61865;50.232;18.614;2023-03-23T12:35:48;8.45;;;4.03;;
73585;SDS011;61865;50.232;18.614;2023-03-23T12:38:26;14.15;;;4.72;;
73585;SDS011;61865;50.232;18.614;2023-03-23T12:41:02;7.90;;;4.07;;
73585;SDS011;61865;50.232;18.614;2023-03-23T12:43:35;10.57;;;4.25;;
73585;SDS011;61865;50.232;18.614;2023-03-23T12:46:06;11.38;;;4.53;;
73585;SDS011;61865;50.232;18.614;2023-03-23T12:48:51;7.90;;;4.18;;
73585;SDS011;61865;50.232;18.614;2023-03-23T12:51:19;9.50;;;3.95;;
73585;SDS011;61865;50.232;18.614;2023-03-23T12:53:47;8.77;;;3.83;;
73585;SDS011;61865;50.232;18.614;2023-03-23T12:56:14;10.02;;;4.30;;
73585;SDS011;61865;50.232;18.614;2023-03-23T12:58:40;6.40;;;3.42;;
73585;SDS011;61865;50.232;18.614;2023-03-23T13:01:07;7.28;;;3.70;;
73585;SDS011;61865;50.232;18.614;2023-03-23T13:03:35;6.80;;;3.78;;
73585;SDS011;61865;50.232;18.614;2023-03-23T13:06:05;7.03;;;3.72;;
73585;SDS011;61865;50.232;18.614;2023-03-23T13:08:35;10.73;;;3.90;;
73585;SDS011;61865;50.232;18.614;2023-03-23T13:11:03;6.07;;;3.35;;
73585;SDS011;61865;50.232;18.614;2023-03-23T13:13:39;7.00;;;3.65;;
73585;SDS011;61865;50.232;18.614;2023-03-23T13:16:06;10.93;;;3.75;;
73585;SDS011;61865;50.232;18.614;2023-03-23T13:18:35;6.78;;;3.45;;
73585;SDS011;61865;50.232;18.614;2023-03-23T13:21:06;6.82;;;3.40;;
73585;SDS011;61865;50.232;18.614;2023-03-23T13:23:36;8.25;;;3.58;;
73585;SDS011;61865;50.232;18.614;2023-03-23T13:26:01;7.47;;;3.67;;
73585;SDS011;61865;50.232;18.614;2023-03-23T13:28:26;7.00;;;3.78;;
73585;SDS011;61865;50.232;18.614;2023-03-23T13:30:53;6.53;;;3.67;;
73585;SDS011;61865;50.232;18.614;2023-03-23T13:33:19;10.13;;;3.65;;
73585;SDS011;61865;50.232;18.614;2023-03-23T13:35:42;9.20;;;4.00;;
73585;SDS011;61865;50.232;18.614;2023-03-23T13:38:15;5.57;;;3.40;;
73585;SDS011;61865;50.232;18.614;2023-03-23T13:40:42;8.27;;;3.67;;
73585;SDS011;61865;50.232;18.614;2023-03-23T13:43:07;8.35;;;3.78;;
73585;SDS011;61865;50.232;18.614;2023-03-23T13:45:36;10.25;;;3.90;;
73585;SDS011;61865;50.232;18.614;2023-03-23T13:48:04;9.63;;;3.83;;
73585;SDS011;61865;50.232;18.614;2023-03-23T13:50:43;9.43;;;3.90;;
73585;SDS011;61865;50.232;18.614;2023-03-23T13:53:20;16.02;;;5.50;;
73585;SDS011;61865;50.232;18.614;2023-03-23T13:55:47;8.10;;;4.47;;
73585;SDS011;61865;50.232;18.614;2023-03-23T13:58:11;8.20;;;4.35;;
73585;SDS011;61865;50.232;18.614;2023-03-23T14:00:45;8.63;;;4.22;;
73585;SDS011;61865;50.232;18.614;2023-03-23T14:03:11;7.97;;;4.05;;
73585;SDS011;61865;50.232;18.614;2023-03-23T14:05:36;9.80;;;4.40;;
73585;SDS011;61865;50.232;18.614;2023-03-23T14:08:00;10.38;;;4.63;;
73585;SDS011;61865;50.232;18.614;2023-03-23T14:10:25;8.73;;;4.65;;
73585;SDS011;61865;50.232;18.614;2023-03-23T14:12:54;12.82;;;5.60;;
73585;SDS011;61865;50.232;18.614;2023-03-23T14:15:16;11.27;;;4.38;;
73585;SDS011;61865;50.232;18.614;2023-03-23T14:17:40;10.98;;;4.82;;
73585;SDS011;61865;50.232;18.614;2023-03-23T14:20:04;12.00;;;4.22;;
73585;SDS011;61865;50.232;18.614;2023-03-23T14:22:28;9.63;;;4.05;;